createdAt,value
2022-12-29T00:01:40.516Z,97211.38
2022-12-29T00:04:11.449Z,97212.31
2022-12-29T00:06:40.766Z,97228.97
2022-12-29T00:09:07.282Z,97231.34
2022-12-29T00:11:34.572Z,97238.28
2022-12-29T00:14:00.943Z,97238.28
2022-12-29T00:16:27.481Z,97236.13
2022-12-29T00:19:13.532Z,97241.47
2022-12-29T00:21:44.938Z,97259.34
2022-12-29T00:26:53.709Z,97248.13
2022-12-29T00:29:21.381Z,97239.97
2022-12-29T00:31:55.995Z,97225.44
2022-12-29T00:34:22.763Z,97227.19
2022-12-29T00:36:52.089Z,97216.16
2022-12-29T00:39:18.473Z,97215.81
2022-12-29T00:41:44.985Z,97217.22
2022-12-29T00:44:11.340Z,97205.91
2022-12-29T00:46:37.812Z,97199.31
2022-12-29T00:49:04.862Z,97188.22
2022-12-29T00:51:31.447Z,97171.31
2022-12-29T00:53:57.892Z,97181.00
2022-12-29T00:56:25.295Z,97180.13
2022-12-29T01:01:35.448Z,97168.75
2022-12-29T01:04:04.023Z,97176.53
2022-12-29T01:06:30.814Z,97183.94
2022-12-29T01:08:57.248Z,97199.59
2022-12-29T01:11:23.618Z,97208.03
2022-12-29T01:13:50.088Z,97189.66
2022-12-29T01:16:16.570Z,97180.41
2022-12-29T01:18:44.642Z,97198.31
2022-12-29T01:21:14.026Z,97188.38
2022-12-29T01:23:42.996Z,97197.44
2022-12-29T01:26:09.402Z,97202.19
2022-12-29T01:28:35.832Z,97217.84
2022-12-29T01:31:02.312Z,97204.28
2022-12-29T01:33:29.082Z,97218.69
2022-12-29T01:36:00.038Z,97217.94
2022-12-29T01:38:26.483Z,97221.59
2022-12-29T01:40:53.610Z,97230.81
2022-12-29T01:43:23.630Z,97240.63
2022-12-29T01:45:50.092Z,97238.75
2022-12-29T01:48:18.662Z,97258.41
2022-12-29T01:53:38.059Z,97236.94
2022-12-29T01:56:04.730Z,97234.19
2022-12-29T01:58:34.093Z,97247.31
2022-12-29T02:01:05.361Z,97227.28
2022-12-29T02:03:31.901Z,97224.31
2022-12-29T02:05:58.455Z,97227.63
2022-12-29T02:08:24.878Z,97235.69
2022-12-29T02:10:51.274Z,97232.97
2022-12-29T02:13:17.801Z,97231.91
2022-12-29T02:15:44.662Z,97224.91
2022-12-29T02:18:11.047Z,97226.69
2022-12-29T02:20:37.441Z,97235.56
2022-12-29T02:23:10.593Z,97218.16
2022-12-29T02:25:37.005Z,97216.22
2022-12-29T02:28:21.739Z,97225.28
2022-12-29T02:33:32.058Z,97219.06
2022-12-29T02:35:58.585Z,97235.81
2022-12-29T02:38:25.052Z,97231.66
2022-12-29T02:40:54.329Z,97229.59
2022-12-29T02:43:25.099Z,97230.44
2022-12-29T02:45:51.562Z,97223.88
2022-12-29T02:48:22.237Z,97223.25
2022-12-29T02:50:48.627Z,97219.44
2022-12-29T02:53:15.031Z,97218.00
2022-12-29T02:55:41.469Z,97221.31
2022-12-29T02:58:07.967Z,97230.28
2022-12-29T03:00:34.370Z,97239.34
2022-12-29T03:03:00.863Z,97243.72
2022-12-29T03:08:17.725Z,97224.75
2022-12-29T03:10:44.739Z,97209.09
2022-12-29T03:13:13.634Z,97179.59
2022-12-29T03:15:40.100Z,97175.44
2022-12-29T03:18:06.542Z,97147.16
2022-12-29T03:23:14.873Z,97186.78
2022-12-29T03:25:42.606Z,97173.97
2022-12-29T03:28:09.280Z,97176.09
2022-12-29T03:30:38.487Z,97197.44
2022-12-29T03:35:46.631Z,97198.84
2022-12-29T03:38:24.180Z,97182.44
2022-12-29T03:40:50.678Z,97173.09
2022-12-29T03:43:17.218Z,97160.09
2022-12-29T03:45:44.920Z,97156.19
2022-12-29T03:48:11.461Z,97158.06
2022-12-29T03:50:37.954Z,97165.72
2022-12-29T03:53:04.371Z,97164.72
2022-12-29T03:55:30.858Z,97149.06
2022-12-29T03:57:57.324Z,97149.03
2022-12-29T04:00:23.828Z,97160.16
2022-12-29T04:02:50.552Z,97164.28
2022-12-29T04:05:21.002Z,97173.16
2022-12-29T04:07:48.236Z,97158.72
2022-12-29T04:10:14.660Z,97160.56
2022-12-29T04:12:41.052Z,97162.63
2022-12-29T04:15:07.518Z,97156.19
2022-12-29T04:17:34.034Z,97156.81
2022-12-29T04:20:00.659Z,97156.25
2022-12-29T04:22:27.443Z,97165.13
2022-12-29T04:24:53.830Z,97159.16
2022-12-29T04:27:20.188Z,97159.81
2022-12-29T04:29:46.715Z,97162.69
2022-12-29T04:32:17.641Z,97162.22
2022-12-29T04:34:44.980Z,97158.13
2022-12-29T04:37:11.354Z,97160.38
2022-12-29T04:39:37.759Z,97163.91
2022-12-29T04:42:04.156Z,97166.31
2022-12-29T04:47:10.882Z,97180.81
2022-12-29T04:49:37.320Z,97187.56
2022-12-29T04:52:19.137Z,97173.16
2022-12-29T04:54:45.550Z,97168.88
2022-12-29T04:57:11.921Z,97157.97
2022-12-29T04:59:38.373Z,97155.00
2022-12-29T05:02:04.906Z,97165.00
2022-12-29T05:04:31.360Z,97166.25
2022-12-29T05:06:57.806Z,97172.84
2022-12-29T05:09:32.040Z,97173.16
2022-12-29T05:14:44.977Z,97169.88
2022-12-29T05:17:11.496Z,97157.06
2022-12-29T05:19:38.021Z,97159.34
2022-12-29T05:22:04.465Z,97160.38
2022-12-29T05:24:33.677Z,97163.84
2022-12-29T05:27:00.061Z,97168.00
2022-12-29T05:29:26.522Z,97168.25
2022-12-29T05:31:53.053Z,97161.63
2022-12-29T05:34:19.453Z,97159.75
2022-12-29T05:36:45.915Z,97158.88
2022-12-29T05:39:12.384Z,97160.16
2022-12-29T05:41:38.804Z,97168.00
2022-12-29T05:44:05.236Z,97184.69
2022-12-29T05:46:31.729Z,97187.94
2022-12-29T05:48:58.125Z,97193.31
2022-12-29T05:51:24.587Z,97200.34
2022-12-29T05:53:51.018Z,97208.97
2022-12-29T05:56:17.440Z,97201.19
2022-12-29T05:58:44.120Z,97193.56
2022-12-29T06:01:10.661Z,97204.09
2022-12-29T06:03:37.177Z,97205.50
2022-12-29T06:06:03.796Z,97197.91
2022-12-29T06:11:10.550Z,97172.69
2022-12-29T06:13:37.337Z,97171.03
2022-12-29T06:16:03.784Z,97167.75
2022-12-29T06:18:30.215Z,97171.91
2022-12-29T06:20:56.883Z,97177.91
2022-12-29T06:26:03.691Z,97187.84
2022-12-29T06:28:30.155Z,97196.50
2022-12-29T06:30:56.585Z,97183.94
2022-12-29T06:33:30.305Z,97173.03
2022-12-29T06:35:59.418Z,97177.72
2022-12-29T06:38:25.745Z,97179.34
2022-12-29T06:40:52.353Z,97177.72
2022-12-29T06:43:19.198Z,97177.06
2022-12-29T06:45:45.636Z,97184.22
2022-12-29T06:48:12.644Z,97190.44
2022-12-29T06:50:39.567Z,97201.53
2022-12-29T06:53:08.509Z,97198.63
2022-12-29T06:55:35.004Z,97192.94
2022-12-29T06:58:01.433Z,97196.25
2022-12-29T07:00:27.822Z,97194.50
2022-12-29T07:02:54.340Z,97201.53
2022-12-29T07:05:20.819Z,97192.75
2022-12-29T07:07:47.236Z,97182.41
2022-12-29T07:10:13.604Z,97178.94
2022-12-29T07:12:40.276Z,97167.41
2022-12-29T07:15:06.722Z,97159.63
2022-12-29T07:17:33.257Z,97173.03
2022-12-29T07:20:04.984Z,97177.81
2022-12-29T07:22:32.436Z,97185.44
2022-12-29T07:24:58.837Z,97199.28
2022-12-29T07:27:31.036Z,97199.19
2022-12-29T07:29:57.566Z,97202.56
2022-12-29T07:32:24.024Z,97182.22
2022-12-29T07:34:50.422Z,97190.66
2022-12-29T07:37:16.810Z,97185.50
2022-12-29T07:39:56.363Z,97191.94
2022-12-29T07:42:22.739Z,97202.06
2022-12-29T07:44:49.143Z,97205.13
2022-12-29T07:47:15.590Z,97220.72
2022-12-29T07:49:42.127Z,97201.59
2022-12-29T07:52:09.739Z,97198.53
2022-12-29T07:54:36.548Z,97196.28
2022-12-29T07:57:03.017Z,97192.53
2022-12-29T07:59:29.454Z,97203.16
2022-12-29T08:01:55.941Z,97211.50
2022-12-29T08:04:34.203Z,97204.94
2022-12-29T08:07:00.775Z,97193.59
2022-12-29T08:09:34.398Z,97193.75
2022-12-29T08:12:00.800Z,97190.44
2022-12-29T08:14:29.890Z,97194.34
2022-12-29T08:16:56.390Z,97182.44
2022-12-29T08:19:22.911Z,97189.22
2022-12-29T08:21:50.538Z,97207.91
2022-12-29T08:24:16.960Z,97205.69
2022-12-29T08:26:45.645Z,97202.22
2022-12-29T08:29:13.871Z,97205.31
2022-12-29T08:31:43.443Z,97191.28
2022-12-29T08:34:09.960Z,97171.22
2022-12-29T08:36:36.367Z,97171.88
2022-12-29T08:39:02.787Z,97167.56
2022-12-29T08:41:29.276Z,97162.22
2022-12-29T08:43:55.727Z,97178.09
2022-12-29T08:46:22.289Z,97167.97
2022-12-29T08:48:48.873Z,97173.97
2022-12-29T08:51:17.244Z,97174.41
2022-12-29T08:53:45.580Z,97174.34
2022-12-29T08:56:14.514Z,97184.16
2022-12-29T08:58:42.027Z,97184.56
2022-12-29T09:01:08.484Z,97184.66
2022-12-29T09:04:12.800Z,97192.91
2022-12-29T09:06:21.403Z,97200.75
2022-12-29T09:08:47.991Z,97209.66
2022-12-29T09:11:14.425Z,97235.66
2022-12-29T09:13:42.075Z,97278.16
2022-12-29T09:16:08.637Z,97279.41
2022-12-29T09:18:35.491Z,97283.22
2022-12-29T09:23:45.839Z,97296.66
2022-12-29T09:26:12.311Z,97309.47
2022-12-29T09:28:39.269Z,97308.72
2022-12-29T09:31:05.826Z,97297.00
2022-12-29T09:33:32.369Z,97291.09
2022-12-29T09:35:58.793Z,97260.81
2022-12-29T09:38:25.433Z,97258.81
2022-12-29T09:40:51.978Z,97254.75
2022-12-29T09:43:18.477Z,97237.81
2022-12-29T09:45:45.045Z,97247.53
2022-12-29T09:48:11.542Z,97241.72
2022-12-29T09:50:38.379Z,97236.22
2022-12-29T09:53:08.508Z,97235.81
2022-12-29T09:55:35.022Z,97238.31
2022-12-29T09:58:01.578Z,97233.16
2022-12-29T10:00:31.345Z,97228.81
2022-12-29T10:02:59.945Z,97236.41
2022-12-29T10:05:27.033Z,97243.22
2022-12-29T10:07:58.487Z,97244.47
2022-12-29T10:10:25.009Z,97237.69
2022-12-29T10:12:54.301Z,97239.97
2022-12-29T10:15:27.914Z,97231.09
2022-12-29T10:17:57.173Z,97228.63
2022-12-29T10:20:23.699Z,97225.94
2022-12-29T10:22:50.566Z,97226.94
2022-12-29T10:25:18.738Z,97222.84
2022-12-29T10:27:45.133Z,97213.53
2022-12-29T10:30:11.535Z,97209.81
2022-12-29T10:32:37.995Z,97214.16
2022-12-29T10:35:06.746Z,97216.63
2022-12-29T10:37:34.221Z,97205.25
2022-12-29T10:40:00.995Z,97192.25
2022-12-29T10:42:27.478Z,97186.25
2022-12-29T10:44:53.918Z,97179.22
2022-12-29T10:47:20.471Z,97170.94
2022-12-29T10:49:46.956Z,97156.69
2022-12-29T10:52:13.433Z,97155.66
2022-12-29T10:54:39.961Z,97138.69
2022-12-29T10:57:06.412Z,97146.78
2022-12-29T10:59:32.929Z,97137.88
2022-12-29T11:01:59.486Z,97124.44
2022-12-29T11:04:26.066Z,97119.88
2022-12-29T11:06:52.559Z,97113.25
2022-12-29T11:09:18.989Z,97109.94
2022-12-29T11:11:45.407Z,97102.91
2022-12-29T11:14:11.922Z,97108.09
2022-12-29T11:16:38.398Z,97094.84
2022-12-29T11:19:04.849Z,97088.22
2022-12-29T11:21:31.278Z,97083.06
2022-12-29T11:23:57.732Z,97078.06
2022-12-29T11:26:28.825Z,97073.31
2022-12-29T11:28:58.377Z,97063.94
2022-12-29T11:31:24.872Z,97049.69
2022-12-29T11:33:53.400Z,97060.38
2022-12-29T11:36:19.804Z,97038.47
2022-12-29T11:38:46.269Z,97032.88
2022-12-29T11:41:12.775Z,97021.22
2022-12-29T11:43:39.285Z,97024.13
2022-12-29T11:46:05.885Z,97020.66
2022-12-29T11:48:32.306Z,97021.66
2022-12-29T11:50:58.701Z,97020.88
2022-12-29T11:53:25.336Z,97012.59
2022-12-29T11:55:51.746Z,97008.91
2022-12-29T11:58:18.246Z,97004.50
2022-12-29T12:00:49.774Z,96991.28
2022-12-29T12:03:16.387Z,96981.72
2022-12-29T12:05:42.805Z,96973.59
2022-12-29T12:08:09.249Z,96975.03
2022-12-29T12:10:35.669Z,96970.06
2022-12-29T12:13:02.028Z,96981.84
2022-12-29T12:15:31.420Z,96969.72
2022-12-29T12:17:57.787Z,96998.91
2022-12-29T12:20:24.172Z,97017.13
2022-12-29T12:22:50.911Z,97035.38
2022-12-29T12:25:17.373Z,97042.22
2022-12-29T12:27:46.930Z,97037.53
2022-12-29T12:30:28.435Z,97037.06
2022-12-29T12:32:54.823Z,97048.19
2022-12-29T12:35:22.102Z,97047.38
2022-12-29T12:37:48.766Z,97053.19
2022-12-29T12:40:15.213Z,97060.44
2022-12-29T12:42:41.643Z,97073.38
2022-12-29T12:45:09.384Z,97077.53
2022-12-29T12:47:35.798Z,97112.31
2022-12-29T12:52:42.526Z,97128.72
2022-12-29T12:55:16.307Z,97121.69
2022-12-29T12:57:45.124Z,97121.91
2022-12-29T13:00:12.512Z,97096.22
2022-12-29T13:02:39.195Z,97094.97
2022-12-29T13:05:05.763Z,97082.34
2022-12-29T13:07:32.165Z,97091.44
2022-12-29T13:09:58.620Z,97082.72
2022-12-29T13:12:25.132Z,97068.78
2022-12-29T13:14:51.617Z,97075.34
2022-12-29T13:17:18.108Z,97056.06
2022-12-29T13:19:44.566Z,97068.09
2022-12-29T13:22:10.941Z,97060.44
2022-12-29T13:24:37.326Z,97065.31
2022-12-29T13:27:05.844Z,97057.84
2022-12-29T13:29:32.265Z,97052.09
2022-12-29T13:32:02.008Z,97050.06
2022-12-29T13:34:31.360Z,97030.06
2022-12-29T13:36:57.782Z,97034.34
2022-12-29T13:39:24.203Z,97030.06
2022-12-29T13:41:53.578Z,97026.97
2022-12-29T13:44:19.991Z,97023.47
2022-12-29T13:46:46.643Z,97031.44
2022-12-29T13:49:13.139Z,97015.31
2022-12-29T13:51:39.583Z,97008.59
2022-12-29T13:54:06.072Z,97002.31
2022-12-29T13:56:32.501Z,97004.41
2022-12-29T13:58:59.922Z,96996.56
2022-12-29T14:01:26.538Z,97000.03
2022-12-29T14:03:53.060Z,96996.59
2022-12-29T14:06:19.762Z,96994.56
2022-12-29T14:08:46.238Z,97000.50
2022-12-29T14:11:12.645Z,96998.00
2022-12-29T14:13:39.072Z,96991.09
2022-12-29T14:16:05.552Z,96988.59
2022-12-29T14:18:31.943Z,96996.25
2022-12-29T14:20:58.393Z,96984.66
2022-12-29T14:23:24.823Z,96998.13
2022-12-29T14:25:51.269Z,97003.28
2022-12-29T14:28:19.888Z,97006.56
2022-12-29T14:30:46.283Z,97000.81
2022-12-29T14:33:14.015Z,96983.66
2022-12-29T14:35:40.479Z,96987.16
2022-12-29T14:38:06.951Z,96994.66
2022-12-29T14:40:33.316Z,96991.31
2022-12-29T14:43:01.020Z,96983.03
2022-12-29T14:45:27.488Z,96990.16
2022-12-29T14:47:53.963Z,96988.72
2022-12-29T14:50:20.441Z,96985.00
2022-12-29T14:52:46.899Z,96986.25
2022-12-29T14:55:13.384Z,96984.81
2022-12-29T14:57:39.817Z,96990.75
2022-12-29T15:00:06.276Z,96975.63
2022-12-29T15:02:32.814Z,96973.56
2022-12-29T15:04:59.341Z,96961.50
2022-12-29T15:07:28.242Z,96964.41
2022-12-29T15:12:45.632Z,96972.00
2022-12-29T15:15:12.195Z,96968.22
2022-12-29T15:17:41.589Z,96970.47
2022-12-29T15:20:08.065Z,96974.59
2022-12-29T15:22:34.490Z,96986.00
2022-12-29T15:25:00.911Z,96998.41
2022-12-29T15:27:27.362Z,96998.72
2022-12-29T15:29:53.870Z,96996.06
2022-12-29T15:32:20.310Z,97000.09
2022-12-29T15:34:48.849Z,96991.75
2022-12-29T15:37:15.384Z,96992.19
2022-12-29T15:39:41.853Z,96992.59
2022-12-29T15:42:08.264Z,96986.16
2022-12-29T15:44:34.605Z,96982.53
2022-12-29T15:47:01.661Z,96980.66
2022-12-29T15:49:32.276Z,96986.69
2022-12-29T15:51:59.116Z,96978.59
2022-12-29T15:54:25.597Z,96979.84
2022-12-29T15:56:57.575Z,96987.53
2022-12-29T15:59:24.072Z,96987.91
2022-12-29T16:01:50.612Z,96980.22
2022-12-29T16:04:17.178Z,96980.22
2022-12-29T16:06:43.631Z,96990.81
2022-12-29T16:09:10.095Z,96988.69
2022-12-29T16:11:36.600Z,96983.88
2022-12-29T16:14:03.125Z,96981.13
2022-12-29T16:16:29.891Z,96986.94
2022-12-29T16:18:57.989Z,96972.69
2022-12-29T16:21:24.889Z,96953.59
2022-12-29T16:23:51.403Z,96938.06
2022-12-29T16:26:17.834Z,96937.03
2022-12-29T16:28:44.323Z,96940.97
2022-12-29T16:31:10.856Z,96932.53
2022-12-29T16:33:37.256Z,96931.53
2022-12-29T16:36:15.278Z,96934.38
2022-12-29T16:38:44.021Z,96949.72
2022-12-29T16:41:10.501Z,96965.47
2022-12-29T16:43:37.031Z,96982.44
2022-12-29T16:46:03.568Z,96994.84
2022-12-29T16:48:30.094Z,96994.84
2022-12-29T16:50:56.534Z,97000.81
2022-12-29T16:53:22.974Z,97001.47
2022-12-29T16:55:49.487Z,97003.09
2022-12-29T16:58:16.056Z,97001.25
2022-12-29T17:00:42.557Z,96998.56
2022-12-29T17:03:09.159Z,97001.25
2022-12-29T17:05:35.781Z,97000.25
2022-12-29T17:08:02.263Z,96996.31
2022-12-29T17:10:28.740Z,97002.34
2022-12-29T17:12:55.202Z,96990.78
2022-12-29T17:15:21.688Z,97000.91
2022-12-29T17:17:51.530Z,97004.84
2022-12-29T17:20:18.008Z,96998.22
2022-12-29T17:22:44.429Z,97007.91
2022-12-29T17:28:01.722Z,97010.34
2022-12-29T17:30:33.148Z,96988.41
2022-12-29T17:33:00.494Z,96984.25
2022-12-29T17:35:26.833Z,96989.84
2022-12-29T17:37:53.338Z,96997.69
2022-12-29T17:40:19.766Z,96994.78
2022-12-29T17:42:46.266Z,97007.63
2022-12-29T17:45:12.697Z,97003.88
2022-12-29T17:47:39.139Z,97014.66
2022-12-29T17:50:05.562Z,97014.84
2022-12-29T17:52:32.334Z,97013.00
2022-12-29T17:54:58.714Z,97026.69
2022-12-29T17:57:25.085Z,97030.63
2022-12-29T17:59:51.461Z,97030.41
2022-12-29T18:02:17.948Z,97038.91
2022-12-29T18:04:44.509Z,97039.06
2022-12-29T18:07:10.863Z,97031.41
2022-12-29T18:09:37.308Z,97035.78
2022-12-29T18:12:03.659Z,97044.66
2022-12-29T18:14:30.038Z,97048.38
2022-12-29T18:16:56.398Z,97037.91
2022-12-29T18:19:22.783Z,97040.09
2022-12-29T18:21:50.222Z,97040.72
2022-12-29T18:26:56.914Z,97053.38
2022-12-29T18:29:23.657Z,97063.94
2022-12-29T18:31:50.056Z,97067.72
2022-12-29T18:34:16.629Z,97067.50
2022-12-29T18:36:43.008Z,97074.97
2022-12-29T18:41:50.805Z,97083.63
2022-12-29T18:44:17.246Z,97080.13
2022-12-29T18:46:43.668Z,97076.00
2022-12-29T18:49:10.053Z,97086.75
2022-12-29T18:51:39.016Z,97085.72
2022-12-29T18:54:07.720Z,97084.28
2022-12-29T18:56:39.252Z,97081.81
2022-12-29T18:59:05.766Z,97074.34
2022-12-29T19:01:41.312Z,97083.69
2022-12-29T19:04:07.864Z,97080.16
2022-12-29T19:06:34.797Z,97088.47
2022-12-29T19:09:01.190Z,97075.16
2022-12-29T19:11:27.667Z,97083.06
2022-12-29T19:13:54.214Z,97097.31
2022-12-29T19:16:21.128Z,97095.66
2022-12-29T19:18:59.722Z,97095.66
2022-12-29T19:21:34.269Z,97114.47
2022-12-29T19:24:00.824Z,97114.47
2022-12-29T19:26:27.318Z,97116.34
2022-12-29T19:28:53.811Z,97113.66
2022-12-29T19:31:20.303Z,97110.97
2022-12-29T19:33:46.724Z,97125.44
2022-12-29T19:36:13.157Z,97103.94
2022-12-29T19:38:39.586Z,97101.66
2022-12-29T19:41:06.097Z,97107.03
2022-12-29T19:43:34.515Z,97113.25
2022-12-29T19:46:01.000Z,97115.94
2022-12-29T19:48:27.405Z,97116.34
2022-12-29T19:50:53.837Z,97123.38
2022-12-29T19:53:20.259Z,97116.56
2022-12-29T19:55:46.797Z,97116.75
2022-12-29T19:58:13.283Z,97128.16
2022-12-29T20:00:39.855Z,97134.34
2022-12-29T20:03:06.495Z,97140.53
2022-12-29T20:05:33.066Z,97144.28
2022-12-29T20:07:59.470Z,97143.22
2022-12-29T20:10:25.909Z,97151.50
2022-12-29T20:12:52.271Z,97154.41
2022-12-29T20:15:20.793Z,97155.84
2022-12-29T20:18:12.925Z,97153.78
2022-12-29T20:20:33.487Z,97159.97
2022-12-29T20:23:02.006Z,97161.66
2022-12-29T20:25:45.633Z,97158.13
2022-12-29T20:28:13.316Z,97172.81
2022-12-29T20:30:39.672Z,97170.34
2022-12-29T20:33:08.310Z,97180.47
2022-12-29T20:35:35.239Z,97179.22
2022-12-29T20:38:01.605Z,97184.59
2022-12-29T20:40:28.077Z,97180.88
2022-12-29T20:48:21.987Z,97165.34
2022-12-29T20:50:48.396Z,97149.22
2022-12-29T20:53:14.869Z,97151.50
2022-12-29T20:55:41.537Z,97157.09
2022-12-29T20:58:24.468Z,97150.03
2022-12-29T21:00:51.333Z,97137.66
2022-12-29T21:03:25.781Z,97134.78
2022-12-29T21:05:52.362Z,97139.94
2022-12-29T21:08:18.718Z,97136.00
2022-12-29T21:10:45.131Z,97133.31
2022-12-29T21:13:11.571Z,97131.66
2022-12-29T21:15:37.949Z,97131.66
2022-12-29T21:18:05.273Z,97126.28
2022-12-29T21:20:31.635Z,97137.66
2022-12-29T21:22:58.033Z,97122.16
2022-12-29T21:25:24.388Z,97116.78
2022-12-29T21:27:50.833Z,97120.28
2022-12-29T21:30:17.199Z,97122.34
2022-12-29T21:32:43.628Z,97120.28
2022-12-29T21:35:10.127Z,97121.72
2022-12-29T21:37:36.493Z,97129.19
2022-12-29T21:40:02.866Z,97130.03
2022-12-29T21:42:29.297Z,97126.69
2022-12-29T21:44:56.103Z,97122.97
2022-12-29T21:47:22.519Z,97123.59
2022-12-29T21:49:52.695Z,97126.28
2022-12-29T21:52:19.118Z,97133.09
2022-12-29T21:54:45.585Z,97131.84
2022-12-29T21:57:15.535Z,97132.69
2022-12-29T21:59:45.800Z,97135.97
2022-12-29T22:02:12.403Z,97143.41
2022-12-29T22:04:38.903Z,97139.69
2022-12-29T22:07:05.291Z,97142.97
2022-12-29T22:09:31.742Z,97145.06
2022-12-29T22:11:58.060Z,97145.25
2022-12-29T22:14:24.404Z,97160.13
2022-12-29T22:16:50.814Z,97163.63
2022-12-29T22:19:17.285Z,97177.25
2022-12-29T22:24:23.985Z,97175.22
2022-12-29T22:26:50.403Z,97181.41
2022-12-29T22:29:16.743Z,97188.63
2022-12-29T22:31:43.143Z,97185.50
2022-12-29T22:34:09.641Z,97179.31
2022-12-29T22:36:36.021Z,97180.75
2022-12-29T22:39:02.389Z,97190.47
2022-12-29T22:41:28.720Z,97186.94
2022-12-29T22:43:55.107Z,97192.91
2022-12-29T22:46:21.573Z,97180.13
2022-12-29T22:48:48.430Z,97184.47
2022-12-29T22:51:14.814Z,97180.16
2022-12-29T22:53:41.309Z,97180.38
2022-12-29T22:56:07.743Z,97173.78
2022-12-29T22:58:35.176Z,97166.13
2022-12-29T23:01:01.567Z,97175.66
2022-12-29T23:03:28.117Z,97186.00
2022-12-29T23:05:54.548Z,97189.69
2022-12-29T23:08:20.975Z,97185.97
2022-12-29T23:10:47.413Z,97182.66
2022-12-29T23:13:13.871Z,97177.91
2022-12-29T23:15:40.362Z,97172.97
2022-12-29T23:18:06.848Z,97169.91
2022-12-29T23:20:33.281Z,97174.22
2022-12-29T23:22:59.613Z,97169.91
2022-12-29T23:25:25.995Z,97175.06
2022-12-29T23:27:52.364Z,97181.47
2022-12-29T23:30:18.807Z,97179.00
2022-12-29T23:32:45.146Z,97168.03
2022-12-29T23:35:11.512Z,97178.19
2022-12-29T23:37:37.890Z,97175.72
2022-12-29T23:40:04.941Z,97182.09
2022-12-29T23:42:31.482Z,97184.34
2022-12-29T23:44:57.992Z,97195.91
2022-12-29T23:47:24.425Z,97206.03
2022-12-29T23:49:50.818Z,97220.69
2022-12-29T23:52:17.213Z,97220.69
2022-12-29T23:54:43.659Z,97230.59
2022-12-29T23:57:10.085Z,97232.88
2022-12-29T23:59:36.510Z,97232.88
